sensor_id;sensor_type;location;lat;lon;timestamp;pressure;altitude;pressure_sealevel;temperature;humidity
51617;BME280;37697;52.588;13.394;2023-07-24T00:00:24;100131.77;;;17.39;73.35
51617;BME280;37697;52.588;13.394;2023-07-24T00:05:49;100124.30;;;17.43;73.62
51617;BME280;37697;52.588;13.394;2023-07-24T00:10:55;100121.71;;;17.45;73.69
51617;BME280;37697;52.588;13.394;2023-07-24T00:16:00;100122.36;;;17.45;73.70
51617;BME280;37697;52.588;13.394;2023-07-24T00:21:05;100116.88;;;17.46;73.40
51617;BME280;37697;52.588;13.394;2023-07-24T00:26:11;100112.80;;;17.53;73.09
51617;BME280;37697;52.588;13.394;2023-07-24T00:31:16;100107.59;;;17.66;72.70
51617;BME280;37697;52.588;13.394;2023-07-24T00:36:22;100109.94;;;17.80;72.30
51617;BME280;37697;52.588;13.394;2023-07-24T00:41:27;100104.05;;;17.90;71.75
51617;BME280;37697;52.588;13.394;2023-07-24T00:46:33;100100.16;;;18.00;71.40
51617;BME280;37697;52.588;13.394;2023-07-24T00:51:41;100095.63;;;18.09;70.92
51617;BME280;37697;52.588;13.394;2023-07-24T00:56:47;100088.95;;;18.14;70.63
51617;BME280;37697;52.588;13.394;2023-07-24T01:01:53;100080.50;;;18.17;70.44
51617;BME280;37697;52.588;13.394;2023-07-24T01:06:58;100081.09;;;18.18;69.98
51617;BME280;37697;52.588;13.394;2023-07-24T01:12:10;100065.97;;;18.19;69.69
51617;BME280;37697;52.588;13.394;2023-07-24T01:17:23;100060.91;;;18.17;69.47
51617;BME280;37697;52.588;13.394;2023-07-24T01:22:36;100058.48;;;18.15;69.39
51617;BME280;37697;52.588;13.394;2023-07-24T01:27:45;100051.56;;;18.15;69.50
51617;BME280;37697;52.588;13.394;2023-07-24T01:32:51;100050.21;;;18.15;69.41
51617;BME280;37697;52.588;13.394;2023-07-24T01:37:57;100049.45;;;18.13;69.57
51617;BME280;37697;52.588;13.394;2023-07-24T01:43:04;100046.09;;;18.11;69.64
51617;BME280;37697;52.588;13.394;2023-07-24T01:48:09;100043.13;;;18.11;69.46
51617;BME280;37697;52.588;13.394;2023-07-24T01:53:15;100041.16;;;18.12;69.45
51617;BME280;37697;52.588;13.394;2023-07-24T01:58:20;100035.81;;;18.16;69.30
51617;BME280;37697;52.588;13.394;2023-07-24T02:03:26;100036.73;;;18.23;69.41
51617;BME280;37697;52.588;13.394;2023-07-24T02:08:32;100028.66;;;18.31;69.42
51617;BME280;37697;52.588;13.394;2023-07-24T02:13:37;100026.89;;;18.40;69.40
51617;BME280;37697;52.588;13.394;2023-07-24T02:18:43;100024.54;;;18.47;69.36
51617;BME280;37697;52.588;13.394;2023-07-24T02:23:49;100023.10;;;18.52;69.40
51617;BME280;37697;52.588;13.394;2023-07-24T02:28:54;100014.41;;;18.57;69.11
51617;BME280;37697;52.588;13.394;2023-07-24T02:33:59;100008.35;;;18.62;69.09
51617;BME280;37697;52.588;13.394;2023-07-24T02:39:05;100009.48;;;18.63;68.91
51617;BME280;37697;52.588;13.394;2023-07-24T02:44:10;100010.84;;;18.63;68.77
51617;BME280;37697;52.588;13.394;2023-07-24T02:49:16;100012.98;;;18.62;68.54
51617;BME280;37697;52.588;13.394;2023-07-24T02:54:21;100020.80;;;18.63;68.46
51617;BME280;37697;52.588;13.394;2023-07-24T02:59:27;100023.53;;;18.65;68.36
51617;BME280;37697;52.588;13.394;2023-07-24T03:04:32;100036.31;;;18.67;68.29
51617;BME280;37697;52.588;13.394;2023-07-24T03:09:38;100048.07;;;18.70;68.31
51617;BME280;37697;52.588;13.394;2023-07-24T03:14:44;100050.27;;;18.72;68.57
51617;BME280;37697;52.588;13.394;2023-07-24T03:19:50;100047.90;;;18.69;69.30
51617;BME280;37697;52.588;13.394;2023-07-24T03:24:55;100046.48;;;18.61;69.99
51617;BME280;37697;52.588;13.394;2023-07-24T03:30:01;100050.80;;;18.55;70.45
51617;BME280;37697;52.588;13.394;2023-07-24T03:35:08;100044.98;;;18.50;70.66
51617;BME280;37697;52.588;13.394;2023-07-24T03:40:14;100044.34;;;18.50;71.03
51617;BME280;37697;52.588;13.394;2023-07-24T03:45:21;100052.57;;;18.51;71.17
51617;BME280;37697;52.588;13.394;2023-07-24T03:50:28;100058.38;;;18.47;72.21
51617;BME280;37697;52.588;13.394;2023-07-24T03:55:34;100061.77;;;18.34;73.92
51617;BME280;37697;52.588;13.394;2023-07-24T04:00:39;100057.66;;;18.18;75.59
51617;BME280;37697;52.588;13.394;2023-07-24T04:05:45;100055.27;;;18.09;76.32
51617;BME280;37697;52.588;13.394;2023-07-24T04:10:50;100050.36;;;18.01;77.12
51617;BME280;37697;52.588;13.394;2023-07-24T04:15:56;100049.56;;;17.97;78.27
51617;BME280;37697;52.588;13.394;2023-07-24T04:21:03;100048.38;;;17.97;78.76
51617;BME280;37697;52.588;13.394;2023-07-24T04:26:08;100046.95;;;17.98;79.37
51617;BME280;37697;52.588;13.394;2023-07-24T04:31:14;100050.06;;;17.97;79.94
51617;BME280;37697;52.588;13.394;2023-07-24T04:36:19;100048.93;;;18.01;80.50
51617;BME280;37697;52.588;13.394;2023-07-24T04:41:24;100047.99;;;18.02;80.97
51617;BME280;37697;52.588;13.394;2023-07-24T04:46:30;100050.16;;;18.03;81.55
51617;BME280;37697;52.588;13.394;2023-07-24T04:51:36;100056.02;;;18.06;81.86
51617;BME280;37697;52.588;13.394;2023-07-24T04:56:41;100054.04;;;18.06;82.42
51617;BME280;37697;52.588;13.394;2023-07-24T05:01:47;100045.09;;;18.13;83.00
51617;BME280;37697;52.588;13.394;2023-07-24T05:06:53;100044.45;;;18.23;82.88
51617;BME280;37697;52.588;13.394;2023-07-24T05:11:58;100043.90;;;18.33;82.98
51617;BME280;37697;52.588;13.394;2023-07-24T05:17:04;100037.21;;;18.43;83.25
51617;BME280;37697;52.588;13.394;2023-07-24T05:22:09;100032.96;;;18.51;83.10
51617;BME280;37697;52.588;13.394;2023-07-24T05:27:15;100022.06;;;18.78;83.26
51617;BME280;37697;52.588;13.394;2023-07-24T05:32:21;100013.22;;;19.32;82.82
51617;BME280;37697;52.588;13.394;2023-07-24T05:37:26;100012.70;;;20.10;81.94
51617;BME280;37697;52.588;13.394;2023-07-24T05:42:33;100011.66;;;20.38;80.22
51617;BME280;37697;52.588;13.394;2023-07-24T05:47:44;100007.23;;;20.33;79.60
51617;BME280;37697;52.588;13.394;2023-07-24T05:52:49;100004.14;;;20.26;79.03
51617;BME280;37697;52.588;13.394;2023-07-24T05:57:55;100003.46;;;20.21;78.85
51617;BME280;37697;52.588;13.394;2023-07-24T06:03:00;99990.87;;;20.25;78.45
51617;BME280;37697;52.588;13.394;2023-07-24T06:08:06;99983.31;;;20.39;77.87
51617;BME280;37697;52.588;13.394;2023-07-24T06:13:13;99979.33;;;20.64;77.41
51617;BME280;37697;52.588;13.394;2023-07-24T06:18:19;99972.05;;;20.90;76.57
51617;BME280;37697;52.588;13.394;2023-07-24T06:23:25;99966.94;;;21.08;75.77
51617;BME280;37697;52.588;13.394;2023-07-24T06:28:30;99967.48;;;21.23;74.72
51617;BME280;37697;52.588;13.394;2023-07-24T06:33:37;99961.33;;;21.30;73.82
51617;BME280;37697;52.588;13.394;2023-07-24T06:38:43;99955.63;;;21.46;73.24
51617;BME280;37697;52.588;13.394;2023-07-24T06:43:49;99954.41;;;21.73;72.67
51617;BME280;37697;52.588;13.394;2023-07-24T06:48:54;99955.70;;;22.02;72.21
51617;BME280;37697;52.588;13.394;2023-07-24T06:54:00;99945.13;;;22.39;71.11
51617;BME280;37697;52.588;13.394;2023-07-24T06:59:05;99940.38;;;22.83;69.91
51617;BME280;37697;52.588;13.394;2023-07-24T07:04:11;99936.44;;;23.10;68.63
51617;BME280;37697;52.588;13.394;2023-07-24T07:09:16;99926.34;;;23.38;67.59
51617;BME280;37697;52.588;13.394;2023-07-24T07:14:22;99928.54;;;23.58;66.65
51617;BME280;37697;52.588;13.394;2023-07-24T07:19:28;99920.73;;;23.76;65.81
51617;BME280;37697;52.588;13.394;2023-07-24T07:24:33;99910.11;;;24.15;65.10
51617;BME280;37697;52.588;13.394;2023-07-24T07:29:39;99903.63;;;24.37;63.74
51617;BME280;37697;52.588;13.394;2023-07-24T07:34:44;99907.66;;;24.59;62.51
51617;BME280;37697;52.588;13.394;2023-07-24T07:39:50;99912.05;;;24.71;61.74
51617;BME280;37697;52.588;13.394;2023-07-24T07:44:55;99919.77;;;24.64;60.74
51617;BME280;37697;52.588;13.394;2023-07-24T07:50:01;99925.61;;;24.74;59.71
51617;BME280;37697;52.588;13.394;2023-07-24T07:55:07;99934.73;;;24.71;59.73
51617;BME280;37697;52.588;13.394;2023-07-24T08:00:15;99936.60;;;24.76;60.08
51617;BME280;37697;52.588;13.394;2023-07-24T08:05:20;99934.02;;;24.91;59.49
51617;BME280;37697;52.588;13.394;2023-07-24T08:10:26;99928.70;;;25.04;58.76
51617;BME280;37697;52.588;13.394;2023-07-24T08:15:35;99926.38;;;25.09;58.03
51617;BME280;37697;52.588;13.394;2023-07-24T08:20:40;99915.52;;;24.95;57.50
51617;BME280;37697;52.588;13.394;2023-07-24T08:25:53;99909.04;;;24.94;57.36
51617;BME280;37697;52.588;13.394;2023-07-24T08:31:00;99896.98;;;24.86;57.16
51617;BME280;37697;52.588;13.394;2023-07-24T08:36:11;99890.48;;;25.22;57.09
51617;BME280;37697;52.588;13.394;2023-07-24T08:41:17;99883.89;;;25.44;56.23
51617;BME280;37697;52.588;13.394;2023-07-24T08:46:23;99869.94;;;25.41;56.00
51617;BME280;37697;52.588;13.394;2023-07-24T08:51:30;99867.89;;;25.25;55.01
51617;BME280;37697;52.588;13.394;2023-07-24T08:56:37;99863.40;;;25.12;55.07
51617;BME280;37697;52.588;13.394;2023-07-24T09:01:43;99860.29;;;25.22;54.62
51617;BME280;37697;52.588;13.394;2023-07-24T09:06:50;99844.06;;;25.26;54.72
51617;BME280;37697;52.588;13.394;2023-07-24T09:11:55;99841.75;;;25.41;54.32
51617;BME280;37697;52.588;13.394;2023-07-24T09:17:05;99831.41;;;25.68;54.27
51617;BME280;37697;52.588;13.394;2023-07-24T09:22:13;99836.15;;;26.02;53.44
51617;BME280;37697;52.588;13.394;2023-07-24T09:27:19;99828.29;;;26.29;53.33
51617;BME280;37697;52.588;13.394;2023-07-24T09:32:26;99819.86;;;26.56;52.17
51617;BME280;37697;52.588;13.394;2023-07-24T09:37:34;99820.73;;;26.65;52.04
51617;BME280;37697;52.588;13.394;2023-07-24T09:42:40;99821.06;;;26.52;52.12
51617;BME280;37697;52.588;13.394;2023-07-24T09:48:06;99826.02;;;26.75;51.92
51617;BME280;37697;52.588;13.394;2023-07-24T09:53:49;99821.92;;;27.06;51.72
51617;BME280;37697;52.588;13.394;2023-07-24T09:58:57;99825.33;;;27.03;50.26
51617;BME280;37697;52.588;13.394;2023-07-24T10:04:05;99808.42;;;27.00;50.24
51617;BME280;37697;52.588;13.394;2023-07-24T10:09:12;99801.77;;;27.27;49.24
51617;BME280;37697;52.588;13.394;2023-07-24T10:14:18;99791.27;;;27.37;49.34
51617;BME280;37697;52.588;13.394;2023-07-24T10:19:24;99772.43;;;27.41;48.87
51617;BME280;37697;52.588;13.394;2023-07-24T10:24:40;99750.20;;;27.70;49.35
51617;BME280;37697;52.588;13.394;2023-07-24T10:29:47;99754.55;;;27.95;48.02
51617;BME280;37697;52.588;13.394;2023-07-24T10:35:09;99751.66;;;27.91;47.26
51617;BME280;37697;52.588;13.394;2023-07-24T10:40:22;99730.64;;;27.85;46.92
51617;BME280;37697;52.588;13.394;2023-07-24T10:45:42;99732.45;;;27.72;46.34
51617;BME280;37697;52.588;13.394;2023-07-24T10:50:52;99724.08;;;27.80;46.48
51617;BME280;37697;52.588;13.394;2023-07-24T10:56:01;99708.81;;;27.77;45.50
51617;BME280;37697;52.588;13.394;2023-07-24T11:01:07;99701.48;;;27.64;45.44
51617;BME280;37697;52.588;13.394;2023-07-24T11:06:16;99689.11;;;27.58;45.75
51617;BME280;37697;52.588;13.394;2023-07-24T11:11:22;99682.77;;;27.57;45.04
51617;BME280;37697;52.588;13.394;2023-07-24T11:16:29;99663.23;;;27.51;44.63
51617;BME280;37697;52.588;13.394;2023-07-24T11:21:39;99653.60;;;27.54;45.21
51617;BME280;37697;52.588;13.394;2023-07-24T11:26:46;99649.94;;;27.47;45.26
51617;BME280;37697;52.588;13.394;2023-07-24T11:31:55;99653.63;;;27.36;44.42
51617;BME280;37697;52.588;13.394;2023-07-24T11:37:00;99641.52;;;27.29;43.91
51617;BME280;37697;52.588;13.394;2023-07-24T11:42:07;99630.97;;;27.12;44.79
51617;BME280;37697;52.588;13.394;2023-07-24T11:47:13;99620.90;;;27.20;44.55
51617;BME280;37697;52.588;13.394;2023-07-24T11:52:18;99613.36;;;27.46;45.01
51617;BME280;37697;52.588;13.394;2023-07-24T11:57:24;99613.04;;;27.41;44.33
51617;BME280;37697;52.588;13.394;2023-07-24T12:02:29;99616.55;;;27.10;44.24
51617;BME280;37697;52.588;13.394;2023-07-24T12:07:38;99615.45;;;26.81;44.17
51617;BME280;37697;52.588;13.394;2023-07-24T12:12:46;99639.27;;;26.56;44.17
51617;BME280;37697;52.588;13.394;2023-07-24T12:17:52;99681.49;;;26.25;45.39
51617;BME280;37697;52.588;13.394;2023-07-24T12:22:58;99697.95;;;25.52;48.48
51617;BME280;37697;52.588;13.394;2023-07-24T12:28:04;99698.14;;;24.68;51.58
51617;BME280;37697;52.588;13.394;2023-07-24T12:33:09;99689.39;;;23.93;54.61
51617;BME280;37697;52.588;13.394;2023-07-24T12:38:14;99703.31;;;23.45;56.93
51617;BME280;37697;52.588;13.394;2023-07-24T12:43:20;99701.27;;;23.32;59.13
51617;BME280;37697;52.588;13.394;2023-07-24T12:48:25;99697.61;;;23.62;60.33
51617;BME280;37697;52.588;13.394;2023-07-24T12:53:31;99685.54;;;23.94;61.64
51617;BME280;37697;52.588;13.394;2023-07-24T12:58:50;99677.07;;;24.34;62.04
51617;BME280;37697;52.588;13.394;2023-07-24T13:03:55;99678.64;;;24.32;61.56
51617;BME280;37697;52.588;13.394;2023-07-24T13:09:01;99689.38;;;24.15;61.74
51617;BME280;37697;52.588;13.394;2023-07-24T13:14:06;99697.39;;;23.99;61.81
51617;BME280;37697;52.588;13.394;2023-07-24T13:19:12;99698.39;;;23.79;62.38
51617;BME280;37697;52.588;13.394;2023-07-24T13:24:17;99678.64;;;23.94;63.25
51617;BME280;37697;52.588;13.394;2023-07-24T13:29:23;99661.33;;;23.98;63.28
51617;BME280;37697;52.588;13.394;2023-07-24T13:34:30;99653.48;;;24.14;63.78
51617;BME280;37697;52.588;13.394;2023-07-24T13:39:37;99640.79;;;24.54;64.12
51617;BME280;37697;52.588;13.394;2023-07-24T13:44:42;99627.20;;;24.79;63.70
51617;BME280;37697;52.588;13.394;2023-07-24T13:49:48;99616.59;;;24.94;63.11
51617;BME280;37697;52.588;13.394;2023-07-24T13:54:53;99615.80;;;25.02;63.25
51617;BME280;37697;52.588;13.394;2023-07-24T13:59:59;99609.73;;;25.04;62.93
51617;BME280;37697;52.588;13.394;2023-07-24T14:05:05;99598.73;;;25.02;63.27
51617;BME280;37697;52.588;13.394;2023-07-24T14:10:11;99578.58;;;25.05;63.38
51617;BME280;37697;52.588;13.394;2023-07-24T14:15:17;99573.75;;;25.01;63.10
51617;BME280;37697;52.588;13.394;2023-07-24T14:20:22;99571.16;;;24.92;62.87
51617;BME280;37697;52.588;13.394;2023-07-24T14:25:28;99566.02;;;24.83;62.74
51617;BME280;37697;52.588;13.394;2023-07-24T14:30:33;99560.02;;;24.76;63.12
51617;BME280;37697;52.588;13.394;2023-07-24T14:35:39;99561.89;;;24.80;63.13
51617;BME280;37697;52.588;13.394;2023-07-24T14:40:44;99560.42;;;24.86;62.72
51617;BME280;37697;52.588;13.394;2023-07-24T14:45:50;99548.59;;;24.82;61.84
51617;BME280;37697;52.588;13.394;2023-07-24T14:50:55;99551.45;;;24.80;61.81
51617;BME280;37697;52.588;13.394;2023-07-24T14:56:01;99547.48;;;24.85;61.93
51617;BME280;37697;52.588;13.394;2023-07-24T15:01:06;99531.91;;;24.87;62.13
51617;BME280;37697;52.588;13.394;2023-07-24T15:06:11;99514.89;;;24.82;61.96
51617;BME280;37697;52.588;13.394;2023-07-24T15:11:17;99498.85;;;24.75;62.39
51617;BME280;37697;52.588;13.394;2023-07-24T15:16:22;99491.61;;;24.62;62.10
51617;BME280;37697;52.588;13.394;2023-07-24T15:21:28;99484.88;;;24.57;62.22
51617;BME280;37697;52.588;13.394;2023-07-24T15:26:34;99472.95;;;24.70;61.82
51617;BME280;37697;52.588;13.394;2023-07-24T15:31:40;99467.45;;;24.81;61.26
51617;BME280;37697;52.588;13.394;2023-07-24T15:36:46;99461.80;;;24.94;61.22
51617;BME280;37697;52.588;13.394;2023-07-24T15:41:51;99458.09;;;25.07;60.31
51617;BME280;37697;52.588;13.394;2023-07-24T15:46:57;99462.61;;;25.10;59.68
51617;BME280;37697;52.588;13.394;2023-07-24T15:52:03;99448.85;;;25.14;59.50
51617;BME280;37697;52.588;13.394;2023-07-24T15:57:08;99445.97;;;25.17;59.50
51617;BME280;37697;52.588;13.394;2023-07-24T16:02:14;99439.78;;;25.10;58.77
51617;BME280;37697;52.588;13.394;2023-07-24T16:07:19;99441.41;;;25.04;58.93
51617;BME280;37697;52.588;13.394;2023-07-24T16:12:25;99439.89;;;25.00;59.05
51617;BME280;37697;52.588;13.394;2023-07-24T16:17:30;99435.77;;;24.96;59.23
51617;BME280;37697;52.588;13.394;2023-07-24T16:22:38;99430.04;;;24.94;59.04
51617;BME280;37697;52.588;13.394;2023-07-24T16:27:44;99423.21;;;24.93;58.41
51617;BME280;37697;52.588;13.394;2023-07-24T16:32:49;99417.77;;;25.03;58.67
51617;BME280;37697;52.588;13.394;2023-07-24T16:37:55;99410.17;;;25.13;58.78
51617;BME280;37697;52.588;13.394;2023-07-24T16:43:00;99412.89;;;25.10;57.86
51617;BME280;37697;52.588;13.394;2023-07-24T16:48:06;99421.55;;;24.84;57.57
51617;BME280;37697;52.588;13.394;2023-07-24T16:53:12;99424.70;;;24.52;57.81
51617;BME280;37697;52.588;13.394;2023-07-24T16:58:17;99421.93;;;24.04;58.26
51617;BME280;37697;52.588;13.394;2023-07-24T17:03:23;99400.77;;;23.54;58.52
51617;BME280;37697;52.588;13.394;2023-07-24T17:08:28;99393.65;;;23.12;59.25
51617;BME280;37697;52.588;13.394;2023-07-24T17:13:34;99355.41;;;22.77;59.42
51617;BME280;37697;52.588;13.394;2023-07-24T17:18:39;99339.39;;;22.50;59.95
51617;BME280;37697;52.588;13.394;2023-07-24T17:23:45;99321.65;;;22.32;60.73
51617;BME280;37697;52.588;13.394;2023-07-24T17:28:51;99368.13;;;22.11;61.16
51617;BME280;37697;52.588;13.394;2023-07-24T17:33:57;99545.52;;;21.86;62.40
51617;BME280;37697;52.588;13.394;2023-07-24T17:39:02;99542.42;;;20.76;66.33
51617;BME280;37697;52.588;13.394;2023-07-24T17:44:08;99386.59;;;19.44;69.32
51617;BME280;37697;52.588;13.394;2023-07-24T17:49:13;99355.66;;;18.89;71.92
51617;BME280;37697;52.588;13.394;2023-07-24T17:54:18;99402.79;;;18.65;73.64
51617;BME280;37697;52.588;13.394;2023-07-24T17:59:24;99437.88;;;18.61;74.88
51617;BME280;37697;52.588;13.394;2023-07-24T18:04:30;99460.09;;;18.68;75.76
51617;BME280;37697;52.588;13.394;2023-07-24T18:09:36;99538.05;;;18.75;76.38
51617;BME280;37697;52.588;13.394;2023-07-24T18:14:41;99582.71;;;18.72;76.57
51617;BME280;37697;52.588;13.394;2023-07-24T18:19:47;99597.11;;;18.70;77.63
51617;BME280;37697;52.588;13.394;2023-07-24T18:24:52;99628.84;;;18.70;78.37
51617;BME280;37697;52.588;13.394;2023-07-24T18:29:58;99659.34;;;18.61;79.02
51617;BME280;37697;52.588;13.394;2023-07-24T18:35:04;99645.69;;;18.58;79.82
51617;BME280;37697;52.588;13.394;2023-07-24T18:40:11;99606.88;;;18.54;80.22
51617;BME280;37697;52.588;13.394;2023-07-24T18:45:18;99542.34;;;18.54;80.63
51617;BME280;37697;52.588;13.394;2023-07-24T18:50:23;99500.10;;;18.60;80.90
51617;BME280;37697;52.588;13.394;2023-07-24T18:55:29;99447.52;;;18.60;81.11
51617;BME280;37697;52.588;13.394;2023-07-24T19:00:34;99444.08;;;18.56;81.64
51617;BME280;37697;52.588;13.394;2023-07-24T19:05:40;99487.38;;;18.52;81.99
51617;BME280;37697;52.588;13.394;2023-07-24T19:10:46;99504.04;;;18.54;82.25
51617;BME280;37697;52.588;13.394;2023-07-24T19:15:52;99517.33;;;18.53;82.28
51617;BME280;37697;52.588;13.394;2023-07-24T19:20:57;99535.53;;;18.48;82.61
51617;BME280;37697;52.588;13.394;2023-07-24T19:26:03;99552.30;;;18.43;83.13
51617;BME280;37697;52.588;13.394;2023-07-24T19:31:08;99550.91;;;18.39;83.46
51617;BME280;37697;52.588;13.394;2023-07-24T19:36:14;99561.11;;;18.40;83.64
51617;BME280;37697;52.588;13.394;2023-07-24T19:41:19;99582.89;;;18.36;83.48
51617;BME280;37697;52.588;13.394;2023-07-24T19:46:25;99587.11;;;18.28;83.57
51617;BME280;37697;52.588;13.394;2023-07-24T19:51:31;99576.46;;;18.22;83.50
51617;BME280;37697;52.588;13.394;2023-07-24T19:56:37;99575.13;;;18.15;84.04
51617;BME280;37697;52.588;13.394;2023-07-24T20:01:42;99581.05;;;18.10;84.39
51617;BME280;37697;52.588;13.394;2023-07-24T20:06:48;99591.42;;;18.06;84.48
51617;BME280;37697;52.588;13.394;2023-07-24T20:11:54;99598.23;;;18.00;84.63
51617;BME280;37697;52.588;13.394;2023-07-24T20:16:59;99598.86;;;17.93;84.44
51617;BME280;37697;52.588;13.394;2023-07-24T20:22:05;99594.84;;;17.85;84.55
51617;BME280;37697;52.588;13.394;2023-07-24T20:27:11;99593.23;;;17.78;84.47
51617;BME280;37697;52.588;13.394;2023-07-24T20:32:17;99594.23;;;17.68;84.59
51617;BME280;37697;52.588;13.394;2023-07-24T20:37:22;99600.77;;;17.62;84.89
51617;BME280;37697;52.588;13.394;2023-07-24T20:42:30;99611.27;;;17.55;85.30
51617;BME280;37697;52.588;13.394;2023-07-24T20:47:35;99625.98;;;17.50;85.93
51617;BME280;37697;52.588;13.394;2023-07-24T20:52:41;99627.18;;;17.38;86.55
51617;BME280;37697;52.588;13.394;2023-07-24T20:57:47;99622.48;;;17.32;87.26
51617;BME280;37697;52.588;13.394;2023-07-24T21:02:52;99629.67;;;17.31;87.85
51617;BME280;37697;52.588;13.394;2023-07-24T21:07:58;99631.55;;;17.27;88.09
51617;BME280;37697;52.588;13.394;2023-07-24T21:13:04;99645.38;;;17.21;88.48
51617;BME280;37697;52.588;13.394;2023-07-24T21:18:09;99650.06;;;17.12;88.90
51617;BME280;37697;52.588;13.394;2023-07-24T21:23:15;99644.45;;;17.07;89.46
51617;BME280;37697;52.588;13.394;2023-07-24T21:28:21;99652.38;;;17.01;90.01
51617;BME280;37697;52.588;13.394;2023-07-24T21:33:27;99658.40;;;17.00;90.69
51617;BME280;37697;52.588;13.394;2023-07-24T21:38:32;99661.98;;;17.00;91.23
51617;BME280;37697;52.588;13.394;2023-07-24T21:43:38;99660.56;;;16.96;91.34
51617;BME280;37697;52.588;13.394;2023-07-24T21:48:43;99667.95;;;16.86;91.64
51617;BME280;37697;52.588;13.394;2023-07-24T21:53:49;99667.95;;;16.78;91.56
51617;BME280;37697;52.588;13.394;2023-07-24T21:58:54;99661.56;;;16.67;91.56
51617;BME280;37697;52.588;13.394;2023-07-24T22:04:00;99660.60;;;16.62;91.94
51617;BME280;37697;52.588;13.394;2023-07-24T22:09:05;99669.02;;;16.58;91.94
51617;BME280;37697;52.588;13.394;2023-07-24T22:14:12;99670.38;;;16.53;91.96
51617;BME280;37697;52.588;13.394;2023-07-24T22:19:17;99661.91;;;16.46;92.02
51617;BME280;37697;52.588;13.394;2023-07-24T22:24:23;99648.02;;;16.38;92.18
51617;BME280;37697;52.588;13.394;2023-07-24T22:29:28;99644.75;;;16.33;92.48
51617;BME280;37697;52.588;13.394;2023-07-24T22:34:34;99644.20;;;16.29;92.51
51617;BME280;37697;52.588;13.394;2023-07-24T22:39:39;99642.59;;;16.23;92.67
51617;BME280;37697;52.588;13.394;2023-07-24T22:44:45;99649.21;;;16.17;92.83
51617;BME280;37697;52.588;13.394;2023-07-24T22:49:50;99661.07;;;16.10;92.78
51617;BME280;37697;52.588;13.394;2023-07-24T22:54:56;99673.58;;;16.00;93.07
51617;BME280;37697;52.588;13.394;2023-07-24T23:00:01;99681.09;;;15.95;93.41
51617;BME280;37697;52.588;13.394;2023-07-24T23:05:08;99690.25;;;15.90;93.61
51617;BME280;37697;52.588;13.394;2023-07-24T23:10:13;99695.80;;;15.82;93.68
51617;BME280;37697;52.588;13.394;2023-07-24T23:15:19;99696.44;;;15.78;93.85
51617;BME280;37697;52.588;13.394;2023-07-24T23:20:24;99689.98;;;15.77;94.12
51617;BME280;37697;52.588;13.394;2023-07-24T23:25:30;99700.23;;;15.74;93.96
51617;BME280;37697;52.588;13.394;2023-07-24T23:30:40;99709.91;;;15.68;94.26
51617;BME280;37697;52.588;13.394;2023-07-24T23:35:46;99714.45;;;15.62;94.31
51617;BME280;37697;52.588;13.394;2023-07-24T23:40:58;99719.10;;;15.54;94.77
51617;BME280;37697;52.588;13.394;2023-07-24T23:46:10;99722.39;;;15.48;94.94
51617;BME280;37697;52.588;13.394;2023-07-24T23:51:17;99719.17;;;15.43;95.16
51617;BME280;37697;52.588;13.394;2023-07-24T23:56:23;99718.49;;;15.41;95.57
